createdAt,value
2023-03-22T00:00:56.809Z,21.94
2023-03-22T00:04:56.892Z,21.94
2023-03-22T00:08:56.896Z,21.96
2023-03-22T00:12:57.029Z,21.94
2023-03-22T00:16:57.019Z,21.91
2023-03-22T00:20:57.128Z,21.91
2023-03-22T00:24:57.151Z,21.93
2023-03-22T00:28:57.190Z,21.84
2023-03-22T00:32:57.279Z,21.90
2023-03-22T00:36:57.309Z,21.84
2023-03-22T00:40:57.425Z,21.80
2023-03-22T00:44:57.412Z,21.77
2023-03-22T00:48:57.502Z,21.78
2023-03-22T00:52:57.537Z,21.77
2023-03-22T00:56:57.596Z,21.73
2023-03-22T01:00:57.659Z,21.76
2023-03-22T01:04:57.701Z,21.80
2023-03-22T01:08:57.723Z,21.80
2023-03-22T01:12:57.790Z,21.76
2023-03-22T01:16:57.977Z,21.68
2023-03-22T01:20:57.907Z,21.65
2023-03-22T01:24:57.989Z,21.61
2023-03-22T01:28:58.101Z,21.58
2023-03-22T01:32:58.151Z,21.60
2023-03-22T01:36:58.204Z,21.60
2023-03-22T01:40:58.275Z,21.57
2023-03-22T01:44:58.749Z,21.50
2023-03-22T01:48:58.574Z,21.46
2023-03-22T01:52:58.626Z,21.43
2023-03-22T01:56:58.750Z,21.43
2023-03-22T02:00:58.913Z,21.44
2023-03-22T02:04:59.018Z,21.40
2023-03-22T02:08:59.133Z,21.39
2023-03-22T02:12:59.274Z,21.31
2023-03-22T02:16:59.426Z,21.29
2023-03-22T02:21:01.923Z,21.23
2023-03-22T02:24:59.575Z,21.22
2023-03-22T02:28:59.550Z,21.19
2023-03-22T02:32:59.533Z,21.20
2023-03-22T02:36:59.486Z,21.26
2023-03-22T02:40:59.419Z,21.25
2023-03-22T02:44:59.435Z,21.25
2023-03-22T02:48:59.352Z,21.20
2023-03-22T02:52:59.319Z,21.16
2023-03-22T02:56:59.287Z,21.19
2023-03-22T03:00:59.300Z,21.22
2023-03-22T03:04:59.218Z,21.20
2023-03-22T03:08:59.172Z,21.22
2023-03-22T03:12:59.223Z,21.23
2023-03-22T03:16:59.382Z,21.22
2023-03-22T03:20:59.604Z,21.19
2023-03-22T03:24:59.755Z,21.17
2023-03-22T03:28:59.939Z,21.10
2023-03-22T03:32:59.908Z,21.07
2023-03-22T03:36:59.899Z,21.06
2023-03-22T03:40:59.828Z,21.03
2023-03-22T03:44:59.807Z,21.00
2023-03-22T03:48:59.759Z,20.97
2023-03-22T03:52:59.752Z,20.99
2023-03-22T03:57:00.195Z,20.94
2023-03-22T04:00:59.706Z,21.00
2023-03-22T04:04:59.637Z,20.99
2023-03-22T04:08:59.576Z,20.90
2023-03-22T04:12:59.538Z,20.87
2023-03-22T04:16:59.567Z,20.90
2023-03-22T04:20:59.507Z,20.84
2023-03-22T04:24:59.548Z,20.86
2023-03-22T04:28:59.402Z,20.79
2023-03-22T04:32:59.358Z,20.76
2023-03-22T04:36:59.346Z,20.73
2023-03-22T04:40:59.316Z,20.72
2023-03-22T04:44:59.259Z,20.72
2023-03-22T04:48:59.185Z,20.70
2023-03-22T04:52:59.180Z,20.69
2023-03-22T04:56:59.171Z,20.63
2023-03-22T05:00:59.109Z,20.63
2023-03-22T05:04:59.071Z,20.62
2023-03-22T05:08:59.044Z,20.62
2023-03-22T05:12:59.009Z,20.59
2023-03-22T05:16:58.942Z,20.62
2023-03-22T05:20:59.051Z,20.65
2023-03-22T05:24:59.071Z,20.59
2023-03-22T05:28:59.028Z,20.57
2023-03-22T05:32:59.039Z,20.56
2023-03-22T05:36:59.024Z,20.55
2023-03-22T05:40:59.049Z,20.52
2023-03-22T05:44:59.061Z,20.52
2023-03-22T05:48:59.033Z,20.57
2023-03-22T05:52:59.154Z,20.69
2023-03-22T05:56:59.125Z,20.80
2023-03-22T06:00:59.071Z,20.84
2023-03-22T06:04:59.059Z,20.87
2023-03-22T06:09:10.621Z,20.89
2023-03-22T06:13:00.634Z,20.93
2023-03-22T06:16:58.991Z,20.94
2023-03-22T06:20:59.171Z,20.99
2023-03-22T06:24:59.408Z,21.00
2023-03-22T06:28:59.634Z,21.04
2023-03-22T06:32:59.764Z,21.09
2023-03-22T06:36:59.884Z,21.16
2023-03-22T06:41:00.034Z,21.25
2023-03-22T06:45:00.605Z,21.43
2023-03-22T06:49:00.599Z,21.65
2023-03-22T06:53:00.663Z,21.84
2023-03-22T06:57:00.157Z,22.03
2023-03-22T07:01:00.641Z,22.23
2023-03-22T07:05:00.153Z,22.43
2023-03-22T07:09:00.123Z,22.67
2023-03-22T07:12:59.986Z,22.78
2023-03-22T07:17:00.116Z,22.90
2023-03-22T07:20:59.912Z,22.99
2023-03-22T07:25:01.666Z,23.08
2023-03-22T07:29:00.095Z,23.17
2023-03-22T07:33:00.595Z,23.22
2023-03-22T07:37:00.118Z,23.37
2023-03-22T07:40:59.747Z,23.40
2023-03-22T07:45:00.133Z,23.45
2023-03-22T07:48:59.685Z,23.51
2023-03-22T07:53:00.121Z,23.44
2023-03-22T07:56:59.602Z,23.52
2023-03-22T08:00:59.742Z,23.54
2023-03-22T08:05:00.123Z,23.61
2023-03-22T08:08:59.676Z,23.68
2023-03-22T08:12:59.609Z,23.73
2023-03-22T08:16:59.638Z,23.78
2023-03-22T08:20:59.590Z,23.88
2023-03-22T08:24:59.526Z,23.89
2023-03-22T08:28:59.631Z,23.99
2023-03-22T08:32:59.644Z,24.05
2023-03-22T08:36:59.648Z,24.09
2023-03-22T08:40:59.668Z,24.09
2023-03-22T08:44:59.614Z,24.13
2023-03-22T08:49:00.136Z,24.16
2023-03-22T08:53:00.151Z,24.13
2023-03-22T08:57:00.158Z,24.11
2023-03-22T09:01:00.461Z,24.11
2023-03-22T09:05:00.556Z,24.11
2023-03-22T09:09:00.771Z,24.09
2023-03-22T09:13:01.138Z,24.11
2023-03-22T09:17:01.158Z,24.11
2023-03-22T09:21:01.379Z,24.12
2023-03-22T09:25:01.648Z,24.13
2023-03-22T09:29:02.129Z,24.15
2023-03-22T09:33:01.940Z,24.23
2023-03-22T09:37:02.152Z,24.23
2023-03-22T09:41:02.365Z,24.26
2023-03-22T09:45:03.123Z,24.26
2023-03-22T09:49:02.696Z,24.32
2023-03-22T09:53:03.153Z,24.33
2023-03-22T09:57:02.910Z,24.35
2023-03-22T10:01:03.191Z,24.39
2023-03-22T10:05:03.108Z,24.39
2023-03-22T10:09:03.655Z,24.42
2023-03-22T10:13:03.384Z,24.43
2023-03-22T10:17:03.556Z,24.44
2023-03-22T10:21:04.145Z,24.44
2023-03-22T10:25:03.818Z,24.46
2023-03-22T10:29:04.186Z,24.48
2023-03-22T10:33:04.010Z,24.43
2023-03-22T10:37:04.169Z,24.38
2023-03-22T10:41:04.665Z,24.33
2023-03-22T10:45:04.699Z,24.40
2023-03-22T10:49:04.275Z,24.48
2023-03-22T10:53:04.364Z,24.52
2023-03-22T10:57:04.697Z,24.50
2023-03-22T11:01:04.613Z,24.49
2023-03-22T11:05:04.623Z,24.46
2023-03-22T11:09:04.687Z,24.46
2023-03-22T11:13:05.208Z,24.48
2023-03-22T11:17:04.884Z,24.49
2023-03-22T11:21:04.954Z,24.46
2023-03-22T11:25:05.026Z,24.48
2023-03-22T11:29:05.062Z,24.46
2023-03-22T11:33:05.184Z,24.48
2023-03-22T11:37:05.186Z,24.49
2023-03-22T11:41:05.228Z,24.46
2023-03-22T11:45:05.294Z,24.49
2023-03-22T11:49:05.740Z,24.52
2023-03-22T11:53:05.419Z,24.55
2023-03-22T11:57:05.460Z,24.53
2023-03-22T12:01:05.497Z,24.55
2023-03-22T12:05:05.806Z,24.58
2023-03-22T12:09:05.614Z,24.58
2023-03-22T12:13:05.733Z,24.56
2023-03-22T12:17:05.744Z,24.55
2023-03-22T12:21:05.796Z,24.55
2023-03-22T12:25:05.902Z,24.55
2023-03-22T12:29:06.224Z,24.58
2023-03-22T12:33:06.033Z,24.52
2023-03-22T12:37:06.228Z,24.46
2023-03-22T12:41:06.062Z,24.48
2023-03-22T12:45:06.096Z,24.55
2023-03-22T12:49:06.270Z,24.52
2023-03-22T12:53:06.055Z,24.53
2023-03-22T12:57:06.082Z,24.55
2023-03-22T13:01:06.203Z,24.60
2023-03-22T13:05:06.133Z,24.59
2023-03-22T13:09:06.134Z,24.63
2023-03-22T13:13:06.121Z,24.72
2023-03-22T13:17:06.190Z,24.73
2023-03-22T13:21:06.128Z,24.74
2023-03-22T13:25:06.123Z,24.74
2023-03-22T13:29:06.092Z,24.74
2023-03-22T13:33:06.165Z,24.76
2023-03-22T13:37:06.099Z,24.69
2023-03-22T13:41:06.116Z,24.62
2023-03-22T13:45:06.101Z,24.56
2023-03-22T13:49:06.203Z,24.55
2023-03-22T13:53:06.135Z,24.50
2023-03-22T13:57:06.105Z,24.63
2023-03-22T14:01:06.156Z,24.67
2023-03-22T14:05:13.176Z,24.69
2023-03-22T14:09:06.166Z,24.69
2023-03-22T14:13:06.132Z,24.67
2023-03-22T14:17:06.071Z,24.66
2023-03-22T14:21:06.009Z,24.63
2023-03-22T14:45:56.160Z,24.64
2023-03-22T14:49:56.133Z,24.63
2023-03-22T14:53:56.113Z,24.62
2023-03-22T14:57:56.077Z,24.62
2023-03-22T15:01:56.045Z,24.59
2023-03-22T15:05:55.986Z,24.59
2023-03-22T15:09:55.959Z,24.58
2023-03-22T15:13:55.901Z,24.53
2023-03-22T15:17:55.851Z,24.53
2023-03-22T15:21:55.858Z,24.53
2023-03-22T15:25:55.824Z,24.55
2023-03-22T15:29:55.782Z,24.53
2023-03-22T15:33:55.751Z,24.52
2023-03-22T15:37:55.679Z,24.50
2023-03-22T15:41:55.665Z,24.53
2023-03-22T15:45:55.642Z,24.50
2023-03-22T15:49:55.578Z,24.49
2023-03-22T15:53:55.565Z,24.49
2023-03-22T15:57:55.511Z,24.49
2023-03-22T16:01:55.510Z,24.48
2023-03-22T16:05:55.450Z,24.49
2023-03-22T16:09:55.555Z,24.46
2023-03-22T16:13:55.607Z,24.44
2023-03-22T16:17:55.730Z,24.43
2023-03-22T16:21:55.808Z,24.43
2023-03-22T16:25:55.955Z,24.44
2023-03-22T16:29:56.071Z,24.39
2023-03-22T16:33:56.121Z,24.39
2023-03-22T16:37:56.244Z,24.38
2023-03-22T16:41:56.283Z,24.36
2023-03-22T16:45:56.452Z,24.35
2023-03-22T16:49:56.521Z,24.32
2023-03-22T16:53:56.587Z,24.33
2023-03-22T16:57:56.720Z,24.32
2023-03-22T17:01:56.857Z,24.32
2023-03-22T17:05:56.926Z,24.30
2023-03-22T17:09:57.074Z,24.27
2023-03-22T17:13:57.155Z,24.27
2023-03-22T17:17:57.302Z,24.29
2023-03-22T17:21:57.397Z,24.25
2023-03-22T17:25:57.520Z,24.23
2023-03-22T17:29:57.669Z,24.20
2023-03-22T17:33:57.820Z,24.22
2023-03-22T17:37:58.653Z,24.20
2023-03-22T17:41:58.054Z,24.20
2023-03-22T17:46:38.388Z,24.20
2023-03-22T17:49:59.190Z,24.16
2023-03-22T17:54:40.563Z,24.16
2023-03-22T17:58:27.541Z,24.17
2023-03-22T18:01:59.157Z,24.15
2023-03-22T18:05:58.057Z,24.13
2023-03-22T18:09:58.004Z,24.08
2023-03-22T18:14:10.714Z,24.03
2023-03-22T18:17:58.972Z,24.01
2023-03-22T18:21:57.935Z,23.98
2023-03-22T18:25:58.157Z,23.95
2023-03-22T18:29:58.054Z,23.90
2023-03-22T18:33:58.053Z,23.82
2023-03-22T18:37:57.955Z,23.79
2023-03-22T18:42:05.282Z,23.78
2023-03-22T18:49:58.875Z,23.73
2023-03-22T18:53:57.857Z,23.73
2023-03-22T18:57:57.807Z,23.70
2023-03-22T19:02:09.783Z,23.65
2023-03-22T19:05:58.727Z,23.65
2023-03-22T19:09:57.688Z,23.56
2023-03-22T19:14:49.564Z,23.55
2023-03-22T19:17:58.660Z,23.51
2023-03-22T19:21:58.115Z,23.54
2023-03-22T19:25:57.548Z,23.49
2023-03-22T19:29:57.513Z,23.51
2023-03-22T19:33:57.469Z,23.49
2023-03-22T19:37:57.431Z,23.46
2023-03-22T19:42:05.409Z,23.44
2023-03-22T19:45:58.368Z,23.40
2023-03-22T19:49:57.349Z,23.33
2023-03-22T19:57:57.265Z,23.25
2023-03-22T20:01:57.235Z,23.23
2023-03-22T20:05:57.485Z,23.21
2023-03-22T20:09:57.170Z,23.15
2023-03-22T20:13:57.108Z,23.09
2023-03-22T20:17:57.098Z,23.09
2023-03-22T20:21:57.030Z,23.09
2023-03-22T20:25:56.988Z,23.05
2023-03-22T20:29:56.960Z,23.04
2023-03-22T20:33:56.931Z,23.05
2023-03-22T20:37:56.896Z,22.97
2023-03-22T20:41:57.019Z,22.95
2023-03-22T20:45:57.141Z,22.95
2023-03-22T20:49:57.282Z,22.91
2023-03-22T20:53:57.413Z,22.93
2023-03-22T20:57:57.560Z,22.88
2023-03-22T21:01:57.697Z,22.81
2023-03-22T21:05:57.848Z,22.81
2023-03-22T21:09:57.956Z,22.74
2023-03-22T21:13:58.136Z,22.71
2023-03-22T21:17:58.262Z,22.70
2023-03-22T21:22:04.921Z,22.68
2023-03-22T21:25:59.390Z,22.64
2023-03-22T21:29:58.358Z,22.61
2023-03-22T21:33:59.566Z,22.60
2023-03-22T21:37:58.569Z,22.54
2023-03-22T21:41:58.563Z,22.52
2023-03-22T21:45:58.516Z,22.57
2023-03-22T21:49:58.493Z,22.51
2023-03-22T21:53:58.437Z,22.48
2023-03-22T21:57:58.414Z,22.44
2023-03-22T22:01:58.376Z,22.45
2023-03-22T22:05:58.342Z,22.38
2023-03-22T22:09:58.307Z,22.40
2023-03-22T22:13:58.261Z,22.33
2023-03-22T22:17:58.207Z,22.28
2023-03-22T22:21:58.186Z,22.27
2023-03-22T22:25:58.166Z,22.24
2023-03-22T22:29:58.125Z,22.23
2023-03-22T22:33:58.084Z,22.24
2023-03-22T22:37:58.060Z,22.18
2023-03-22T22:41:58.006Z,22.15
2023-03-22T22:45:57.969Z,22.20
2023-03-22T22:49:57.917Z,22.13
2023-03-22T22:53:57.917Z,22.08
2023-03-22T22:57:57.850Z,22.04
2023-03-22T23:01:57.831Z,22.07
2023-03-22T23:05:57.777Z,22.01
2023-03-22T23:09:57.745Z,22.01
2023-03-22T23:13:57.746Z,21.97
2023-03-22T23:18:03.206Z,21.98
2023-03-22T23:21:58.778Z,21.97
2023-03-22T23:25:57.675Z,21.91
2023-03-22T23:29:57.708Z,21.90
2023-03-22T23:33:57.596Z,21.93
2023-03-22T23:37:57.601Z,21.88
2023-03-22T23:41:57.556Z,21.87
2023-03-22T23:45:57.505Z,21.78
2023-03-22T23:50:04.602Z,21.73
2023-03-22T23:53:57.441Z,21.70
2023-03-22T23:57:57.407Z,21.68
